Airport View

Enter AWOS ICAO identifier for current METAR.

ex. KFNL

KRAL 080553Z AUTO 28004KT 10SM CLR 22/13 A2996 RMK AO2 SLP130 T02170133 10294 20217 51018 TSNO

8 Aug 2020 06:28

Phone: 951-352-4392

Other Area AWOS: KAJO - KCNO - KONT - KRIV

TAF KONT 080520Z 0806/0912 VRB04KT P6SM SKC FM082100 26011G18KT P6SM SKC FM090400 VRB04KT P6SM SKC